Medlin's Ranch, Nevada Weather observations

Data are for observation ending at time listed.
 Day   Time    Ave.   Ave.  Ave.  Vector   Max.   Stn.    Total    Solar   Ave.  
  of    of     Air    Rel.  Wind   Wind    Wind   Baro.  Precip.   Rad.    Soil  
Year   Day     Temp.  Hum.  Speed  Dir.    Gust   Pres.                    Temp. 
2015   (PST)    F      %     mph   deg.    mph     mb.     in.     W/m2     F   
------------------------------------------------------------------------------
  57    4:00   42.8    29    4.2   309      8.1    861     0.00       0    46.4
  57    5:00   41.1    33    4.2   300      8.9    861     0.00       0    46.2
  57    6:00   40.5    30    5.8   312     11.8    861     0.00       0    45.9
  57    7:00   39.6    30    6.9   291     12.3    861     0.00      12    45.5
  57    8:00   42.3    28    7.0   296     12.3    861     0.00      98    45.0
  57    9:00   49.3    21   10.8   334     17.5    861     0.00     417    45.1
  57   10:00   53.7    18    9.4   319     15.9    861     0.00     592    46.4
  57   11:00   56.0    17    9.8   316     21.9    861     0.00     722    48.7
  57   12:00   56.9    17   12.5   320     24.6    860     0.00     803    51.4
  57   13:00   58.0    16   11.1   331     20.8    859     0.00     748    53.7
  57   14:00   58.8    14   12.4   328     23.2    859     0.00     696    55.3
  57   15:00   58.8    14   13.5   324     23.3    858     0.00     604    56.0
  57   16:00   58.9    14   10.9   321     20.2    857     0.00     420    56.2
  57   17:00   57.9    16    9.1   324     15.2    857     0.00     207    56.0
  57   18:00   52.9    20    6.3   310     11.8    857     0.00      18    55.3
  57   19:00   49.0    25    6.5   324     14.6    858     0.00       0    54.3
  57   20:00   46.7    28    4.4   343     10.1    858     0.00       0    53.2
  57   21:00   44.3    29    7.2   341     14.6    859     0.00       0    52.2
  57   22:00   43.3    29    9.2   350     16.7    859     0.00       0    51.2
  57   23:00   42.2    32    8.8   334     14.7    859     0.00       0    50.3
  58    0:00   42.0    35    8.2   330     14.2    859     0.00       0    49.6
  58    1:00   41.9    37    9.8   320     15.8    858     0.00       0    49.1
  58    2:00   41.5    37   10.4   318     18.0    858     0.00       0    48.7
  58    3:00   41.1    38    8.7   318     14.4    857     0.00       0    48.3

Return to Medlin's Ranch, Nevada graphs page.


Western Regional Climate Center,wrcc@dri.edu